Austerlitz, New York
Current Conditions -  °F | °C
As of 1:54 PM on Tuesday 21 Oct 2014 (Local Time) from KPSF Reporting Station
Light Rain Light Rain  
Wind Chill: 50°   Ceiling: 4700
Heat Index: 50°   Visibility: 7mi
Dew Point: 48°   Wind: 0mph
Humidity: 93%   Direction: NA
Pressure: 29.9"   Gusts: NA
Location:  42.31°N, 73.47°W
Report Text: KPSF 211754Z AUTO 00000KT 7SM -RA BKN047 OVC055 10/09 A2990 RMK AO2 RAB22 SLP120 P0002 60007 T01000089 10106 20067 58008
Loading
Personal Weather Stations






























Interactive Weather Map
Tropical Storm Tracking
New forecast layout! Learn more

10-Day Weather Forecast

Advertisements
Track Severe Weather on mobile